NCAR-RAP Real-Time Weather Data

Output produced by METARs form (21 August 2017  04:39 UTC)
found at http://weather.rap.ucar.edu/surface/
 
Conditions at: KMCF observed 21 August 2017  03:58 UTC
Temperature: 27.2°C (81°F)
Dewpoint: 26.8°C (80°F) [RH = 98%]
Pressure (altimeter): 30.11 inches Hg (1019.7 mb)
[Sea-level pressure: 1019.9 mb]
Winds: from the SE (130 degrees) at 10 MPH (9 knots; 4.7 m/s)
Visibility: 10 or more miles (16+ km)
Ceiling: 15000 feet AGL
Clouds: overcast cloud deck at 15000 feet AGL
Present Weather:
SOME DATA ABOVE MAY BE INACCURATE!!!
"$" is an indication the sensor requires maintenance
KMCF 210358Z AUTO 13009KT 10SM OVC150 27/27 A3011 RMK AO2 SLP199 T02720268 $

Conditions at: KMCF observed 21 August 2017  02:58 UTC
Temperature: 27.0°C (81°F)
Dewpoint: 27.0°C (81°F) [RH = 100%]
Pressure (altimeter): 30.10 inches Hg (1019.4 mb)
[Sea-level pressure: 1019.6 mb]
Winds: from the ESE (110 degrees) at 6 MPH (5 knots; 2.6 m/s)
Visibility: 10 or more miles (16+ km)
Ceiling: 15000 feet AGL
Clouds: overcast cloud deck at 15000 feet AGL
Present Weather:
SOME DATA ABOVE MAY BE INACCURATE!!!
"$" is an indication the sensor requires maintenance
KMCF 210258Z AUTO 11005KT 10SM OVC150 27/27 A3010 RMK AO2 SLP196 T02700270 52026 $

Conditions at: KMCF observed 21 August 2017  01:58 UTC
Temperature: 27.3°C (81°F)
Dewpoint: 27.0°C (81°F) [RH = 98%]
Pressure (altimeter): 30.07 inches Hg (1018.4 mb)
[Sea-level pressure: 1018.6 mb]
Winds: from the E (80 degrees) at 7 MPH (6 knots; 3.1 m/s)
Visibility: 10 or more miles (16+ km)
Ceiling: 15000 feet AGL
Clouds: overcast cloud deck at 15000 feet AGL
Present Weather:
SOME DATA ABOVE MAY BE INACCURATE!!!
"$" is an indication the sensor requires maintenance
KMCF 210158Z AUTO 08006KT 10SM OVC150 27/27 A3007 RMK AO2 SLP186 T02730270 $

Conditions at: KMCF observed 21 August 2017  00:58 UTC
Temperature: 27.3°C (81°F)
Dewpoint: 26.7°C (80°F) [RH = 97%]
Pressure (altimeter): 30.05 inches Hg (1017.7 mb)
[Sea-level pressure: 1017.9 mb]
Winds: from the ESE (110 degrees) at 10 MPH (9 knots; 4.7 m/s)
Visibility: 10 or more miles (16+ km)
Ceiling: 15000 feet AGL
Clouds: broken clouds at 15000 feet AGL
Present Weather:
SOME DATA ABOVE MAY BE INACCURATE!!!
"$" is an indication the sensor requires maintenance
KMCF 210058Z AUTO 11009KT 10SM BKN150 27/27 A3005 RMK AO2 LTG DSNT W SLP179 T02730267 $

Conditions at: KMCF observed 20 August 2017  23:58 UTC
Temperature: 27.5°C (82°F)
Dewpoint: 25.8°C (78°F) [RH = 90%]
Pressure (altimeter): 30.03 inches Hg (1017.0 mb)
[Sea-level pressure: 1017.2 mb]
Winds: from the ESE (110 degrees) at 13 MPH (11 knots; 5.7 m/s)
Visibility: 10 or more miles (16+ km)
Ceiling: at least 12,000 feet AGL
Clouds: scattered clouds at 18000 feet AGL
Present Weather:
SOME DATA ABOVE MAY BE INACCURATE!!!
"$" is an indication the sensor requires maintenance
KMCF 202358Z AUTO 11011KT 10SM SCT180 28/26 A3003 RMK AO2 LTG DSNT SW SLP172 T02750258 10342 20275 53009 $

Conditions at: KMCF observed 20 August 2017  22:58 UTC
Temperature: 28.9°C (84°F)
Dewpoint: 23.1°C (74°F) [RH = 71%]
Pressure (altimeter): 30.02 inches Hg (1016.7 mb)
[Sea-level pressure: 1016.9 mb]
Winds: from the ESE (110 degrees) at 13 MPH (11 knots; 5.7 m/s)
Visibility: 10 or more miles (16+ km)
Ceiling: 20000 feet AGL
Clouds: scattered clouds at 17000 feet AGL
broken clouds at 20000 feet AGL
Present Weather:
SOME DATA ABOVE MAY BE INACCURATE!!!
"$" is an indication the sensor requires maintenance
KMCF 202258Z AUTO 11011KT 10SM SCT170 BKN200 29/23 A3002 RMK AO2 LTG DSNT NW SLP169 T02890231 $

Conditions at: KMCF observed 20 August 2017  21:58 UTC
Temperature: 31.1°C (88°F)
Dewpoint: 24.3°C (76°F) [RH = 67%]
Pressure (altimeter): 30.00 inches Hg (1016.0 mb)
[Sea-level pressure: 1016.2 mb]
Winds: from the E (90 degrees) at 16 MPH (14 knots; 7.3 m/s)
Visibility: 10 or more miles (16+ km)
Ceiling: at least 12,000 feet AGL
Clouds: few clouds at 17000 feet AGL
Present Weather:
SOME DATA ABOVE MAY BE INACCURATE!!!
"$" is an indication the sensor requires maintenance
KMCF 202158Z AUTO 09014KT 10SM FEW170 31/24 A3000 RMK AO2 LTG DSNT S SLP162 T03110243 $

Conditions at: KMCF observed 20 August 2017  20:58 UTC
Temperature: 32.4°C (90°F)
Dewpoint: 24.7°C (76°F) [RH = 64%]
Pressure (altimeter): 30.00 inches Hg (1016.0 mb)
[Sea-level pressure: 1016.2 mb]
Winds: from the E (100 degrees) at 10 MPH (9 knots; 4.7 m/s)
Visibility: 10 or more miles (16+ km)
Ceiling: at least 12,000 feet AGL
Clouds: scattered clouds at 16000 feet AGL
scattered clouds at 21000 feet AGL
Present Weather:
SOME DATA ABOVE MAY BE INACCURATE!!!
"$" is an indication the sensor requires maintenance
KMCF 202058Z AUTO 10009KT 10SM SCT160 SCT210 32/25 A3000 RMK AO2 LTG DSNT S SLP162 T03240247 57009 $

Conditions at: KMCF observed 20 August 2017  19:58 UTC
Temperature: 32.4°C (90°F)
Dewpoint: 23.5°C (74°F) [RH = 60%]
Pressure (altimeter): 30.01 inches Hg (1016.3 mb)
[Sea-level pressure: 1016.5 mb]
Winds: from the E (90 degrees) at 10 MPH (9 knots; 4.7 m/s)
Visibility: 10 or more miles (16+ km)
Ceiling: 17000 feet AGL
Clouds: few clouds at 13000 feet AGL
broken clouds at 17000 feet AGL
Present Weather:
SOME DATA ABOVE MAY BE INACCURATE!!!
"$" is an indication the sensor requires maintenance
KMCF 201958Z AUTO 09009KT 10SM FEW130 BKN170 32/24 A3001 RMK AO2 SLP165 T03240235 $

Conditions at: KMCF observed 20 August 2017  18:58 UTC
Temperature: 33.4°C (92°F)
Dewpoint: 23.7°C (75°F) [RH = 57%]
Pressure (altimeter): 30.01 inches Hg (1016.3 mb)
[Sea-level pressure: 1016.5 mb]
Winds: from the E (90 degrees) at 8 MPH (7 knots; 3.6 m/s)
Visibility: 10 or more miles (16+ km)
Ceiling: at least 12,000 feet AGL
Clouds: few clouds at 14000 feet AGL
Present Weather:
SOME DATA ABOVE MAY BE INACCURATE!!!
"$" is an indication the sensor requires maintenance
KMCF 201858Z AUTO 09007KT 10SM FEW140 33/24 A3001 RMK AO2 SLP165 T03340237 $

Conditions at: KMCF observed 20 August 2017  17:58 UTC
Temperature: 34.0°C (93°F)
Dewpoint: 23.7°C (75°F) [RH = 55%]
Pressure (altimeter): 30.03 inches Hg (1017.0 mb)
[Sea-level pressure: 1017.2 mb]
Winds: from the NNE (20 degrees) at 5 MPH (4 knots; 2.1 m/s)
Visibility: 10 or more miles (16+ km)
Ceiling: 21000 feet AGL
Clouds: few clouds at 15000 feet AGL
scattered clouds at 19000 feet AGL
broken clouds at 21000 feet AGL
Present Weather:
SOME DATA ABOVE MAY BE INACCURATE!!!
"$" is an indication the sensor requires maintenance
KMCF 201758Z AUTO 02004KT 10SM FEW150 SCT190 BKN210 34/24 A3003 RMK AO2 SLP172 T03400237 10346 20269 58003 $

Conditions at: KMCF observed 20 August 2017  16:58 UTC
Temperature: 34.2°C (94°F)
Dewpoint: 24.4°C (76°F) [RH = 57%]
Pressure (altimeter): 30.05 inches Hg (1017.7 mb)
[Sea-level pressure: 1017.9 mb]
Winds: from the E (100 degrees) at 5 MPH (4 knots; 2.1 m/s)
Visibility: 10 or more miles (16+ km)
Ceiling: at least 12,000 feet AGL
Clouds: few clouds at 15000 feet AGL
scattered clouds at 19000 feet AGL
Present Weather:
SOME DATA ABOVE MAY BE INACCURATE!!!
"$" is an indication the sensor requires maintenance
KMCF 201658Z AUTO 10004KT 10SM FEW150 SCT190 34/24 A3005 RMK AO2 SLP179 T03420244 $

Conditions at: KMCF observed 20 August 2017  15:58 UTC
Temperature: 32.6°C (91°F)
Dewpoint: 26.1°C (79°F) [RH = 69%]
Pressure (altimeter): 30.05 inches Hg (1017.7 mb)
[Sea-level pressure: 1017.9 mb]
Winds: from the ENE (70 degrees) at 3 MPH (3 knots; 1.6 m/s)
Visibility: 10 or more miles (16+ km)
Ceiling: at least 12,000 feet AGL
Clouds: few clouds at 16000 feet AGL
Present Weather:
SOME DATA ABOVE MAY BE INACCURATE!!!
"$" is an indication the sensor requires maintenance
KMCF 201558Z AUTO 07003KT 10SM FEW160 33/26 A3005 RMK AO2 SLP179 T03260261 $

Conditions at: KMCF observed 20 August 2017  14:58 UTC
Temperature: 31.4°C (89°F)
Dewpoint: 26.8°C (80°F) [RH = 77%]
Pressure (altimeter): 30.04 inches Hg (1017.4 mb)
[Sea-level pressure: 1017.5 mb]
Winds: from the E (80 degrees) at 8 MPH (7 knots; 3.6 m/s)
Visibility: 10 or more miles (16+ km)
Ceiling: at least 12,000 feet AGL
Clouds: sky clear below 12,000 feet AGL
Present Weather:
SOME DATA ABOVE MAY BE INACCURATE!!!
"$" is an indication the sensor requires maintenance
KMCF 201458Z AUTO 08007KT 10SM CLR 31/27 A3004 RMK AO2 SLP175 T03140268 50008 $

Conditions at: KMCF observed 20 August 2017  13:58 UTC
Temperature: 30.8°C (87°F)
Dewpoint: 27.5°C (82°F) [RH = 83%]
Pressure (altimeter): 30.04 inches Hg (1017.4 mb)
[Sea-level pressure: 1017.5 mb]
Winds: from the E (90 degrees) at 7 MPH (6 knots; 3.1 m/s)
Visibility: 10 or more miles (16+ km)
Ceiling: at least 12,000 feet AGL
Clouds: sky clear below 12,000 feet AGL
Present Weather:
SOME DATA ABOVE MAY BE INACCURATE!!!
"$" is an indication the sensor requires maintenance
KMCF 201358Z AUTO 09006KT 10SM CLR 31/28 A3004 RMK AO2 SLP175 T03080275 $

Conditions at: KMCF observed 20 August 2017  12:58 UTC
Temperature: 29.3°C (85°F)
Dewpoint: 27.6°C (82°F) [RH = 91%]
Pressure (altimeter): 30.03 inches Hg (1017.0 mb)
[Sea-level pressure: 1017.2 mb]
Winds: from the E (80 degrees) at 7 MPH (6 knots; 3.1 m/s)
Visibility: 10 or more miles (16+ km)
Ceiling: at least 12,000 feet AGL
Clouds: sky clear below 12,000 feet AGL
Present Weather:
SOME DATA ABOVE MAY BE INACCURATE!!!
"$" is an indication the sensor requires maintenance
KMCF 201258Z AUTO 08006KT 10SM CLR 29/28 A3003 RMK AO2 SLP172 T02930276 $

Conditions at: KMCF observed 20 August 2017  11:58 UTC
Temperature: 26.4°C (80°F)
Dewpoint: 26.4°C (80°F) [RH = 100%]
Pressure (altimeter): 30.01 inches Hg (1016.3 mb)
[Sea-level pressure: 1016.5 mb]
Winds: from the ENE (70 degrees) at 3 MPH (3 knots; 1.6 m/s)
Visibility: 10 or more miles (16+ km)
Ceiling: at least 12,000 feet AGL
Clouds: sky clear below 12,000 feet AGL
Present Weather:
SOME DATA ABOVE MAY BE INACCURATE!!!
"$" is an indication the sensor requires maintenance
KMCF 201158Z AUTO 07003KT 10SM CLR 26/26 A3001 RMK AO2 SLP165 T02640264 10267 20249 52013 $

Conditions at: KMCF observed 20 August 2017  10:58 UTC
Temperature: 24.9°C (77°F)
Dewpoint: 24.9°C (77°F) [RH = 100%]
Pressure (altimeter): 30.00 inches Hg (1016.0 mb)
[Sea-level pressure: 1016.2 mb]
Winds: from the E (90 degrees) at 3 MPH (3 knots; 1.6 m/s)
Visibility: 10 or more miles (16+ km)
Ceiling: at least 12,000 feet AGL
Clouds: sky clear below 12,000 feet AGL
Present Weather:
SOME DATA ABOVE MAY BE INACCURATE!!!
"$" is an indication the sensor requires maintenance
KMCF 201058Z AUTO 09003KT 10SM CLR 25/25 A3000 RMK AO2 SLP162 T02490249 $

Conditions at: KMCF observed 20 August 2017  09:58 UTC
Temperature: 25.9°C (79°F)
Dewpoint: 25.9°C (79°F) [RH = 100%]
Pressure (altimeter): 29.98 inches Hg (1015.3 mb)
[Sea-level pressure: 1015.5 mb]
Winds: from the E (90 degrees) at 6 MPH (5 knots; 2.6 m/s)
Visibility: 10 or more miles (16+ km)
Ceiling: at least 12,000 feet AGL
Clouds: sky clear below 12,000 feet AGL
Present Weather:
SOME DATA ABOVE MAY BE INACCURATE!!!
"$" is an indication the sensor requires maintenance
KMCF 200958Z AUTO 09005KT 10SM CLR 26/26 A2998 RMK AO2 SLP155 T02590259 $

Conditions at: KMCF observed 20 August 2017  08:58 UTC
Temperature: 26.6°C (80°F)
Dewpoint: 26.6°C (80°F) [RH = 100%]
Pressure (altimeter): 29.97 inches Hg (1015.0 mb)
[Sea-level pressure: 1015.2 mb]
Winds: from the E (90 degrees) at 6 MPH (5 knots; 2.6 m/s)
Visibility: 10 or more miles (16+ km)
Ceiling: at least 12,000 feet AGL
Clouds: sky clear below 12,000 feet AGL
Present Weather:
SOME DATA ABOVE MAY BE INACCURATE!!!
"$" is an indication the sensor requires maintenance
KMCF 200858Z AUTO 09005KT 10SM CLR 27/27 A2997 RMK AO2 SLP152 T02660266 55005 $

Conditions at: KMCF observed 20 August 2017  07:58 UTC
Temperature: 26.6°C (80°F)
Dewpoint: 26.6°C (80°F) [RH = 100%]
Pressure (altimeter): 29.96 inches Hg (1014.6 mb)
[Sea-level pressure: 1014.8 mb]
Winds: from the ESE (120 degrees) at 8 MPH (7 knots; 3.6 m/s)
Visibility: 10 or more miles (16+ km)
Ceiling: at least 12,000 feet AGL
Clouds: sky clear below 12,000 feet AGL
Present Weather:
SOME DATA ABOVE MAY BE INACCURATE!!!
"$" is an indication the sensor requires maintenance
KMCF 200758Z AUTO 12007KT 10SM CLR 27/27 A2996 RMK AO2 SLP148 T02660266 $

Conditions at: KMCF observed 20 August 2017  06:58 UTC
Temperature: 26.2°C (79°F)
Dewpoint: 26.2°C (79°F) [RH = 100%]
Pressure (altimeter): 29.98 inches Hg (1015.3 mb)
[Sea-level pressure: 1015.5 mb]
Winds: from the E (100 degrees) at 7 MPH (6 knots; 3.1 m/s)
Visibility: 10 or more miles (16+ km)
Ceiling: at least 12,000 feet AGL
Clouds: sky clear below 12,000 feet AGL
Present Weather:
SOME DATA ABOVE MAY BE INACCURATE!!!
"$" is an indication the sensor requires maintenance
KMCF 200658Z AUTO 10006KT 10SM CLR 26/26 A2998 RMK AO2 SLP155 T02620262 $

Conditions at: KMCF observed 20 August 2017  05:58 UTC
Temperature: 26.1°C (79°F)
Dewpoint: 25.8°C (78°F) [RH = 98%]
Pressure (altimeter): 29.99 inches Hg (1015.7 mb)
[Sea-level pressure: 1015.9 mb]
Winds: from the NE (40 degrees) at 3 MPH (3 knots; 1.6 m/s)
Visibility: 10 or more miles (16+ km)
Ceiling: at least 12,000 feet AGL
Clouds: sky clear below 12,000 feet AGL
Present Weather:
SOME DATA ABOVE MAY BE INACCURATE!!!
"$" is an indication the sensor requires maintenance
KMCF 200558Z AUTO 04003KT 10SM CLR 26/26 A2999 RMK AO2 SLP159 T02610258 10301 20261 55005 $

Conditions at: KMCF observed 20 August 2017  04:58 UTC
Temperature: 26.5°C (80°F)
Dewpoint: 26.4°C (80°F) [RH = 99%]
Pressure (altimeter): 30.00 inches Hg (1016.0 mb)
[Sea-level pressure: 1016.2 mb]
Winds: from the NE (40 degrees) at 6 MPH (5 knots; 2.6 m/s)
Visibility: 10 or more miles (16+ km)
Ceiling: at least 12,000 feet AGL
Clouds: few clouds at 4100 feet AGL
scattered clouds at 5500 feet AGL
Present Weather:
SOME DATA ABOVE MAY BE INACCURATE!!!
"$" is an indication the sensor requires maintenance
KMCF 200458Z AUTO 04005KT 10SM FEW041 SCT055 27/26 A3000 RMK AO2 SLP162 T02650264 403460228 $